Time;durP1;ratioP1;P1;durP2;ratioP2;P2;SDS_P1;SDS_P2;PMS_P1;PMS_P2;Temp;Humidity;BMP_temperature;BMP_pressure;BME280_temperature;BME280_humidity;BME280_pressure;Samples;Min_cycle;Max_cycle;Signal;HPM_P1;HPM_P2
2021/12/20 00:00:52;;;;;;;3.78;2.28;;;1.60;99.90;;;;;;5040534;28;20204;-48
2021/12/20 00:03:19;;;;;;;5.50;2.42;;;1.50;99.90;;;;;;5040250;28;20200;-48
2021/12/20 00:05:47;;;;;;;9.77;2.83;;;1.50;99.90;;;;;;5040338;28;20264;-48
2021/12/20 00:08:14;;;;;;;6.28;4.55;;;1.40;99.90;;;;;;5040272;28;20217;-54
2021/12/20 00:10:41;;;;;;;5.55;3.33;;;1.50;99.90;;;;;;5041459;28;20200;-51
2021/12/20 00:13:09;;;;;;;4.30;3.05;;;1.50;99.90;;;;;;5046973;28;20196;-54
2021/12/20 00:15:36;;;;;;;6.55;2.28;;;1.50;99.90;;;;;;5042705;28;20452;-47
2021/12/20 00:18:03;;;;;;;6.95;3.78;;;1.40;99.90;;;;;;5040667;28;20203;-50
2021/12/20 00:20:31;;;;;;;4.75;2.78;;;1.50;99.90;;;;;;5040262;28;20207;-53
2021/12/20 00:22:58;;;;;;;3.10;2.30;;;1.50;99.90;;;;;;5040485;28;20200;-48
2021/12/20 00:25:25;;;;;;;5.43;3.13;;;1.60;99.90;;;;;;5039865;28;20219;-52
2021/12/20 00:27:52;;;;;;;6.00;3.30;;;1.70;99.90;;;;;;5040142;28;20222;-51
2021/12/20 00:30:21;;;;;;;6.05;2.72;;;1.60;99.90;;;;;;5042281;28;20599;-49
2021/12/20 00:32:48;;;;;;;3.90;2.28;;;1.60;99.90;;;;;;5042156;28;20200;-48
2021/12/20 00:35:18;;;;;;;4.53;3.22;;;1.70;99.90;;;;;;5040033;28;20227;-51
2021/12/20 00:40:31;;;;;;;3.03;2.70;;;1.60;99.90;;;;;;5043418;28;20267;-51
2021/12/20 00:43:00;;;;;;;3.03;2.10;;;1.60;99.90;;;;;;5044032;28;20242;-49
2021/12/20 00:45:32;;;;;;;4.97;2.30;;;1.60;99.90;;;;;;5044103;28;20243;-49
2021/12/20 00:48:00;;;;;;;3.95;2.70;;;1.60;99.90;;;;;;5043715;28;20197;-52
2021/12/20 00:50:28;;;;;;;5.60;4.00;;;1.60;99.90;;;;;;5043450;28;20267;-49
2021/12/20 00:52:56;;;;;;;8.55;2.60;;;1.80;99.90;;;;;;5043846;28;20200;-50
2021/12/20 00:55:25;;;;;;;7.35;3.08;;;1.80;99.90;;;;;;5043711;28;20255;-52
2021/12/20 00:57:55;;;;;;;7.78;2.35;;;1.90;99.90;;;;;;5043575;28;20192;-52
2021/12/20 01:00:25;;;;;;;8.75;2.92;;;1.90;99.90;;;;;;5044374;28;20367;-50
2021/12/20 01:02:54;;;;;;;5.72;4.00;;;1.90;99.90;;;;;;5045047;28;20255;-52
2021/12/20 01:05:22;;;;;;;3.83;2.53;;;2.00;99.90;;;;;;5045712;28;20224;-50
2021/12/20 01:07:51;;;;;;;3.25;2.40;;;2.10;99.90;;;;;;5027051;28;20202;-48
2021/12/20 01:10:18;;;;;;;7.13;2.47;;;2.10;99.90;;;;;;5045079;28;20204;-49
2021/12/20 01:12:49;;;;;;;3.30;2.50;;;2.10;99.90;;;;;;5043954;28;20208;-51
2021/12/20 01:15:31;;;;;;;5.88;2.80;;;2.10;99.90;;;;;;5044767;28;20219;-48
2021/12/20 01:18:00;;;;;;;4.20;2.35;;;2.20;99.90;;;;;;5042577;28;20196;-49
2021/12/20 01:20:27;;;;;;;5.00;3.28;;;2.20;99.90;;;;;;5043204;28;20198;-50
2021/12/20 01:22:56;;;;;;;3.85;2.88;;;2.10;99.90;;;;;;5043067;28;20197;-48
2021/12/20 01:25:24;;;;;;;3.60;3.15;;;2.20;99.90;;;;;;5043307;28;20500;-49
2021/12/20 01:27:52;;;;;;;5.25;2.80;;;2.20;99.90;;;;;;5042519;28;20506;-48
2021/12/20 01:30:22;;;;;;;5.05;3.20;;;2.20;99.90;;;;;;5025479;28;20242;-48
2021/12/20 01:32:50;;;;;;;5.63;2.95;;;2.20;99.90;;;;;;5042975;28;20242;-47
2021/12/20 01:35:19;;;;;;;5.40;3.22;;;2.20;99.90;;;;;;5043373;28;20200;-49
2021/12/20 01:37:47;;;;;;;4.82;2.70;;;2.20;99.90;;;;;;5042628;28;20196;-49
2021/12/20 01:40:15;;;;;;;3.90;3.08;;;2.20;99.90;;;;;;5042996;28;20191;-49
2021/12/20 01:42:44;;;;;;;5.32;3.05;;;2.20;99.90;;;;;;5026473;28;20250;-54
2021/12/20 01:45:14;;;;;;;4.95;2.80;;;2.10;99.90;;;;;;5044437;28;20243;-51
2021/12/20 01:47:46;;;;;;;3.63;2.60;;;2.20;99.90;;;;;;5044348;28;20230;-49
2021/12/20 01:50:35;;;;;;;6.80;3.70;;;2.30;99.90;;;;;;5043722;28;20220;-50
2021/12/20 01:53:03;;;;;;;4.95;3.00;;;2.20;99.90;;;;;;5045869;28;20242;-52
2021/12/20 01:55:30;;;;;;;6.03;3.53;;;2.20;99.90;;;;;;5045179;28;20237;-50
2021/12/20 01:57:58;;;;;;;5.35;2.90;;;2.20;99.90;;;;;;5043640;28;20196;-49
2021/12/20 02:00:28;;;;;;;5.28;4.47;;;2.20;99.90;;;;;;5044187;28;20545;-51
2021/12/20 02:03:02;;;;;;;4.85;3.00;;;2.10;99.90;;;;;;5043746;28;20207;-48
2021/12/20 02:08:23;;;;;;;9.95;3.10;;;2.20;99.90;;;;;;5042423;28;20242;-53
2021/12/20 02:10:54;;;;;;;3.70;2.83;;;2.30;99.90;;;;;;5042992;28;20196;-49
2021/12/20 02:13:24;;;;;;;7.82;3.10;;;2.40;99.90;;;;;;5043239;28;20200;-51
2021/12/20 02:15:52;;;;;;;3.90;2.30;;;2.30;99.90;;;;;;5042460;28;20216;-50
2021/12/20 02:18:19;;;;;;;2.38;2.13;;;2.40;99.90;;;;;;5042845;28;20498;-47
2021/12/20 02:20:47;;;;;;;3.15;2.22;;;2.50;99.90;;;;;;5042158;28;20200;-49
2021/12/20 02:23:14;;;;;;;4.03;2.42;;;2.40;99.90;;;;;;5042316;28;20199;-47
2021/12/20 02:25:41;;;;;;;2.00;1.90;;;2.40;99.90;;;;;;5041986;28;20262;-50
2021/12/20 02:28:14;;;;;;;2.75;2.35;;;2.50;99.90;;;;;;5041604;28;20234;-53
2021/12/20 02:38:56;;;;;;;2.03;1.92;;;2.40;99.90;;;;;;5041765;28;20246;-49
2021/12/20 02:41:29;;;;;;;3.28;2.50;;;2.40;99.90;;;;;;5041683;28;20275;-49
2021/12/20 02:44:03;;;;;;;2.40;2.20;;;2.40;99.90;;;;;;5041575;28;20200;-50
2021/12/20 02:49:09;;;;;;;1.83;1.73;;;2.40;99.90;;;;;;5041510;28;20541;-50
2021/12/20 02:51:37;;;;;;;9.43;2.50;;;2.40;99.90;;;;;;5041798;28;20264;-53
2021/12/20 02:54:07;;;;;;;4.40;2.13;;;2.40;99.90;;;;;;5042538;28;20196;-49
2021/12/20 02:56:35;;;;;;;5.32;2.05;;;2.40;99.90;;;;;;5041478;28;20662;-52
2021/12/20 02:59:04;;;;;;;2.10;1.73;;;2.40;99.90;;;;;;5042000;28;20452;-52
2021/12/20 03:01:31;;;;;;;3.78;2.50;;;2.40;99.90;;;;;;5040446;28;20238;-49
2021/12/20 03:04:00;;;;;;;3.30;2.17;;;2.40;99.90;;;;;;5041228;28;20226;-47
2021/12/20 03:06:40;;;;;;;2.58;2.38;;;2.40;99.90;;;;;;5041006;28;20243;-49
2021/12/20 03:09:13;;;;;;;2.67;2.08;;;2.40;99.90;;;;;;5040848;28;20224;-50
2021/12/20 03:11:41;;;;;;;2.42;2.25;;;2.40;99.90;;;;;;5041180;28;20196;-50
2021/12/20 03:14:18;;;;;;;5.00;2.85;;;2.40;99.90;;;;;;5040599;28;20209;-52
2021/12/20 03:16:46;;;;;;;4.25;1.98;;;2.50;99.90;;;;;;5022988;28;20283;-48
2021/12/20 03:19:14;;;;;;;2.40;2.20;;;2.50;99.90;;;;;;5040772;28;20238;-47
2021/12/20 03:21:41;;;;;;;2.30;2.00;;;2.40;99.90;;;;;;5040831;28;20503;-50
2021/12/20 03:24:09;;;;;;;2.28;1.63;;;2.40;99.90;;;;;;5040665;28;20447;-48
2021/12/20 03:26:36;;;;;;;2.08;1.85;;;2.40;99.90;;;;;;5040714;28;20604;-49
2021/12/20 03:29:04;;;;;;;2.97;2.35;;;2.40;99.90;;;;;;5040523;28;20216;-51
2021/12/20 03:31:32;;;;;;;4.85;2.92;;;2.40;99.90;;;;;;5043017;28;20430;-51
2021/12/20 03:34:00;;;;;;;2.10;1.98;;;2.40;99.90;;;;;;5045574;28;20209;-54
2021/12/20 03:36:27;;;;;;;4.60;1.90;;;2.40;99.90;;;;;;5042337;28;20538;-51
2021/12/20 03:38:54;;;;;;;6.30;2.47;;;2.40;99.90;;;;;;5040533;28;20269;-49
2021/12/20 03:41:22;;;;;;;2.08;1.98;;;2.40;99.90;;;;;;5040856;28;20200;-51
2021/12/20 03:43:50;;;;;;;6.28;2.55;;;2.30;99.90;;;;;;5040829;28;20204;-49
2021/12/20 03:46:17;;;;;;;2.42;2.22;;;2.20;99.90;;;;;;5040484;28;20466;-49
2021/12/20 03:48:45;;;;;;;5.15;2.05;;;2.20;99.90;;;;;;5040962;28;20246;-52
2021/12/20 03:51:12;;;;;;;2.30;2.10;;;2.20;99.90;;;;;;5040787;28;20242;-49
2021/12/20 03:53:41;;;;;;;2.47;2.05;;;2.20;99.90;;;;;;5040666;28;20196;-52
2021/12/20 03:56:08;;;;;;;2.22;2.03;;;2.20;99.90;;;;;;5040097;28;20223;-49
2021/12/20 03:58:36;;;;;;;2.25;2.05;;;2.20;99.90;;;;;;5040719;28;20200;-49
2021/12/20 04:01:06;;;;;;;2.30;1.92;;;2.20;99.90;;;;;;5042275;28;20219;-51
2021/12/20 04:03:35;;;;;;;1.92;1.73;;;2.20;99.90;;;;;;5045219;28;20437;-51
2021/12/20 04:06:05;;;;;;;1.70;1.60;;;2.20;99.90;;;;;;5044967;28;20283;-49
2021/12/20 04:08:33;;;;;;;3.35;1.50;;;2.20;99.90;;;;;;5044690;28;20196;-52
2021/12/20 04:11:00;;;;;;;4.13;3.17;;;2.20;99.90;;;;;;5040767;28;20420;-49
2021/12/20 04:13:28;;;;;;;1.77;1.67;;;2.20;99.90;;;;;;5042422;28;20196;-48
2021/12/20 04:15:55;;;;;;;3.28;2.25;;;2.20;99.90;;;;;;5026410;28;20247;-49
2021/12/20 04:18:24;;;;;;;3.63;3.33;;;2.20;99.90;;;;;;5045022;28;20203;-51
2021/12/20 04:20:51;;;;;;;2.15;1.85;;;2.20;99.90;;;;;;5044339;28;20204;-49
2021/12/20 04:23:19;;;;;;;2.28;1.50;;;2.20;99.90;;;;;;5044566;28;20515;-54
2021/12/20 04:25:46;;;;;;;2.38;1.98;;;2.20;99.90;;;;;;5044192;28;20220;-51
2021/12/20 04:28:14;;;;;;;3.50;1.90;;;2.20;99.90;;;;;;5043985;28;20244;-51
2021/12/20 04:30:42;;;;;;;1.85;1.50;;;2.20;99.90;;;;;;5044048;28;20224;-48
2021/12/20 04:33:09;;;;;;;1.10;1.00;;;2.20;99.90;;;;;;5043969;28;20216;-52
2021/12/20 04:35:37;;;;;;;4.55;2.13;;;2.10;99.90;;;;;;5044093;28;20230;-49
2021/12/20 04:38:04;;;;;;;2.10;1.00;;;2.10;99.90;;;;;;5043729;28;20326;-51
2021/12/20 04:40:32;;;;;;;2.30;1.30;;;2.10;99.90;;;;;;5043882;28;20200;-49
2021/12/20 04:42:59;;;;;;;1.98;1.10;;;2.00;99.90;;;;;;5043706;28;20223;-50
2021/12/20 04:45:28;;;;;;;1.00;0.90;;;2.00;99.90;;;;;;5044137;28;20200;-50
2021/12/20 04:47:56;;;;;;;3.35;1.10;;;2.00;99.90;;;;;;5043520;28;20208;-48
2021/12/20 04:50:25;;;;;;;1.70;1.10;;;2.10;99.90;;;;;;5044091;28;20231;-52
2021/12/20 04:52:54;;;;;;;2.75;1.88;;;2.10;99.90;;;;;;5043722;28;20242;-47
2021/12/20 04:55:24;;;;;;;1.70;1.35;;;2.10;99.90;;;;;;5043606;28;20274;-47
2021/12/20 04:57:51;;;;;;;1.98;0.93;;;2.10;99.90;;;;;;5054758;22;20235;-53
2021/12/20 05:00:22;;;;;;;3.35;1.40;;;2.00;99.90;;;;;;5043171;28;20223;-54
2021/12/20 05:02:49;;;;;;;2.95;1.50;;;2.00;99.90;;;;;;5043146;28;20196;-51
2021/12/20 05:05:18;;;;;;;4.05;1.50;;;2.00;99.90;;;;;;5025765;28;20364;-49
2021/12/20 05:07:46;;;;;;;1.90;1.80;;;2.10;99.90;;;;;;5043311;28;20263;-49
2021/12/20 05:10:25;;;;;;;1.33;1.05;;;2.00;99.90;;;;;;5042978;28;20216;-49
2021/12/20 05:12:57;;;;;;;2.58;1.17;;;2.10;99.90;;;;;;5043713;28;20319;-53
2021/12/20 05:15:26;;;;;;;5.13;1.60;;;2.10;99.90;;;;;;5042935;28;20200;-55
2021/12/20 05:17:53;;;;;;;2.35;1.40;;;2.10;99.90;;;;;;5042496;28;20243;-52
2021/12/20 05:20:21;;;;;;;1.92;1.55;;;2.10;99.90;;;;;;5042754;28;20200;-51
2021/12/20 05:22:48;;;;;;;2.85;1.88;;;2.10;99.90;;;;;;5043284;28;20200;-51
2021/12/20 05:25:16;;;;;;;2.72;1.50;;;2.10;99.90;;;;;;5041990;28;20250;-53
2021/12/20 05:27:44;;;;;;;1.85;1.70;;;2.10;99.90;;;;;;5042626;28;20514;-50
2021/12/20 05:30:14;;;;;;;6.80;1.63;;;2.00;99.90;;;;;;5042028;28;20224;-52
2021/12/20 05:32:42;;;;;;;2.80;1.55;;;2.10;99.90;;;;;;5043242;28;20200;-53
2021/12/20 05:35:11;;;;;;;2.70;2.03;;;2.10;99.90;;;;;;5042612;28;20214;-54
2021/12/20 05:37:39;;;;;;;2.58;1.50;;;2.00;99.90;;;;;;5042025;28;20225;-54
2021/12/20 05:40:09;;;;;;;2.35;1.65;;;2.00;99.90;;;;;;5042511;28;20204;-55
2021/12/20 05:42:36;;;;;;;2.80;1.75;;;2.00;99.90;;;;;;5042292;28;20200;-54
2021/12/20 05:45:05;;;;;;;5.03;2.20;;;2.00;99.90;;;;;;5042266;28;20212;-50
2021/12/20 05:47:33;;;;;;;1.80;1.70;;;2.10;99.90;;;;;;5042211;28;20411;-53
2021/12/20 05:50:01;;;;;;;1.45;1.27;;;2.20;99.90;;;;;;5042720;28;20541;-49
2021/12/20 05:52:28;;;;;;;4.40;2.03;;;2.10;99.90;;;;;;5042954;28;20506;-51
2021/12/20 05:54:55;;;;;;;2.03;1.13;;;2.20;99.90;;;;;;5041827;28;20234;-50
2021/12/20 05:57:22;;;;;;;1.70;1.50;;;2.10;99.90;;;;;;5040863;28;20263;-53
2021/12/20 05:59:50;;;;;;;9.40;2.08;;;2.10;99.90;;;;;;5042014;28;20200;-51
2021/12/20 06:02:17;;;;;;;5.30;1.70;;;2.10;99.90;;;;;;5040566;28;20201;-49
2021/12/20 06:04:50;;;;;;;4.65;1.27;;;2.10;99.90;;;;;;5041177;28;20201;-50
2021/12/20 06:07:18;;;;;;;1.50;1.10;;;2.10;99.90;;;;;;5041280;28;20287;-53
2021/12/20 06:09:47;;;;;;;5.32;1.63;;;2.20;99.90;;;;;;5041316;28;20216;-50
2021/12/20 06:12:15;;;;;;;3.95;1.55;;;2.10;99.90;;;;;;5041380;28;20196;-53
2021/12/20 06:14:42;;;;;;;4.30;2.13;;;2.10;99.90;;;;;;5042005;28;20413;-50
2021/12/20 06:17:09;;;;;;;2.80;2.50;;;2.10;99.90;;;;;;5041056;28;20216;-51
2021/12/20 06:19:36;;;;;;;5.65;2.03;;;2.00;99.90;;;;;;5041433;28;20223;-51
2021/12/20 06:22:04;;;;;;;2.20;1.30;;;2.10;99.90;;;;;;5041348;28;20203;-50
2021/12/20 06:24:31;;;;;;;2.38;1.65;;;2.10;99.90;;;;;;5041707;28;20291;-53
2021/12/20 06:26:59;;;;;;;6.38;3.88;;;2.10;99.90;;;;;;5040970;28;20342;-53
2021/12/20 06:29:26;;;;;;;2.25;1.65;;;2.10;99.90;;;;;;5041297;28;20219;-50
2021/12/20 06:31:53;;;;;;;2.95;2.75;;;2.10;99.90;;;;;;5041522;28;20502;-50
2021/12/20 06:34:21;;;;;;;2.05;1.85;;;2.10;99.90;;;;;;5040593;28;20263;-52
2021/12/20 06:36:48;;;;;;;3.53;2.47;;;2.10;99.90;;;;;;5041047;28;20286;-52
2021/12/20 06:39:16;;;;;;;2.15;1.85;;;2.10;99.90;;;;;;5040970;28;20204;-55
2021/12/20 06:41:44;;;;;;;3.03;2.13;;;2.10;99.90;;;;;;5040717;28;20548;-52
2021/12/20 06:44:11;;;;;;;2.45;1.75;;;2.10;99.90;;;;;;5040723;28;20246;-51
2021/12/20 06:46:40;;;;;;;3.40;2.30;;;2.10;99.90;;;;;;5040652;28;20217;-51
2021/12/20 06:49:10;;;;;;;4.10;1.73;;;2.10;99.90;;;;;;5040091;28;20196;-53
2021/12/20 06:51:43;;;;;;;3.35;1.60;;;2.10;99.90;;;;;;5040888;28;20196;-51
2021/12/20 06:54:13;;;;;;;2.75;1.38;;;2.10;99.90;;;;;;5040892;28;20243;-53
2021/12/20 06:56:43;;;;;;;1.80;1.15;;;2.10;99.90;;;;;;5040464;28;20265;-56
2021/12/20 06:59:10;;;;;;;8.98;2.13;;;2.20;99.90;;;;;;5040369;28;20287;-51
2021/12/20 07:01:38;;;;;;;4.50;1.73;;;2.10;99.90;;;;;;5040559;28;20274;-53
2021/12/20 07:04:05;;;;;;;3.88;2.10;;;2.10;99.90;;;;;;5040307;28;20247;-55
2021/12/20 07:06:34;;;;;;;2.95;1.85;;;2.00;99.90;;;;;;5040427;28;20228;-55
2021/12/20 07:09:01;;;;;;;1.98;1.38;;;2.00;99.90;;;;;;5040584;28;20247;-51
2021/12/20 07:11:28;;;;;;;3.58;1.90;;;2.10;99.90;;;;;;5040303;28;20227;-56
2021/12/20 07:13:55;;;;;;;2.15;1.60;;;2.00;99.90;;;;;;5040436;28;20254;-49
2021/12/20 07:16:23;;;;;;;3.05;2.67;;;2.10;99.90;;;;;;5039719;28;20224;-53
2021/12/20 07:18:50;;;;;;;4.50;2.47;;;2.10;99.90;;;;;;5040204;28;20196;-52
2021/12/20 07:21:18;;;;;;;3.05;2.22;;;1.90;99.90;;;;;;5040076;28;20223;-53
2021/12/20 07:23:45;;;;;;;2.10;1.90;;;2.10;99.90;;;;;;5040322;28;20521;-49
2021/12/20 07:26:13;;;;;;;2.67;1.92;;;2.10;99.90;;;;;;5039792;28;20220;-49
2021/12/20 07:28:42;;;;;;;8.55;2.05;;;2.00;99.90;;;;;;5040250;28;20291;-55
2021/12/20 07:31:14;;;;;;;2.13;1.83;;;2.00;99.90;;;;;;5040299;28;20274;-52
2021/12/20 07:33:42;;;;;;;3.53;2.03;;;2.00;99.90;;;;;;5040060;28;20204;-50
2021/12/20 07:36:11;;;;;;;1.95;1.77;;;2.00;99.90;;;;;;5039672;28;20227;-51
2021/12/20 07:38:38;;;;;;;2.55;2.35;;;2.10;99.90;;;;;;5039788;28;20196;-50
2021/12/20 07:41:06;;;;;;;7.10;2.38;;;2.00;99.90;;;;;;5040007;28;20231;-54
2021/12/20 07:43:33;;;;;;;3.58;2.78;;;2.10;99.90;;;;;;5040075;28;20203;-50
2021/12/20 07:46:00;;;;;;;2.35;1.75;;;2.10;99.90;;;;;;5039739;28;20261;-52
2021/12/20 07:48:27;;;;;;;4.15;2.00;;;2.00;99.90;;;;;;5038835;28;20200;-49
2021/12/20 07:50:55;;;;;;;2.60;2.30;;;2.10;99.90;;;;;;5039556;28;20254;-52
2021/12/20 07:53:22;;;;;;;3.67;3.15;;;2.00;99.90;;;;;;5039853;28;20441;-48
2021/12/20 07:55:49;;;;;;;3.50;2.40;;;2.10;99.90;;;;;;5039525;28;20471;-50
2021/12/20 07:58:16;;;;;;;5.20;2.63;;;2.20;99.90;;;;;;5039355;28;20208;-49
2021/12/20 08:00:43;;;;;;;3.70;2.40;;;2.20;99.90;;;;;;5039856;28;20223;-50
2021/12/20 08:03:12;;;;;;;3.22;2.75;;;2.20;99.90;;;;;;5039581;28;20200;-54
2021/12/20 08:05:39;;;;;;;2.30;2.10;;;2.20;99.90;;;;;;5039623;28;20211;-49
2021/12/20 08:08:07;;;;;;;5.20;2.22;;;2.10;99.90;;;;;;5039589;28;20281;-49
2021/12/20 08:10:35;;;;;;;3.08;2.00;;;2.10;99.90;;;;;;5039366;28;20266;-52
2021/12/20 08:13:02;;;;;;;3.50;2.95;;;2.10;99.90;;;;;;5039588;28;20212;-51
2021/12/20 08:15:30;;;;;;;3.00;2.22;;;2.10;99.90;;;;;;5039850;28;20196;-49
2021/12/20 08:17:57;;;;;;;4.10;2.25;;;2.10;99.90;;;;;;5038903;28;20274;-51
2021/12/20 08:20:25;;;;;;;2.80;2.20;;;2.10;99.90;;;;;;5039672;28;20487;-52
2021/12/20 08:22:53;;;;;;;8.52;2.50;;;2.10;99.90;;;;;;5039443;28;20200;-53
2021/12/20 08:25:21;;;;;;;3.88;2.47;;;2.10;99.90;;;;;;5039265;28;20204;-51
2021/12/20 08:27:49;;;;;;;4.18;3.53;;;2.10;99.90;;;;;;5039264;28;20292;-55
2021/12/20 08:30:17;;;;;;;4.72;2.38;;;2.20;99.90;;;;;;5039010;28;20262;-53
2021/12/20 08:32:45;;;;;;;5.38;3.30;;;2.20;99.90;;;;;;5039360;28;20219;-53
2021/12/20 08:35:14;;;;;;;6.88;1.85;;;2.20;99.90;;;;;;5039087;28;20196;-51
2021/12/20 08:37:42;;;;;;;2.60;2.17;;;2.20;99.90;;;;;;5039478;28;20296;-49
2021/12/20 08:40:14;;;;;;;6.78;2.80;;;2.20;99.90;;;;;;5039608;28;20254;-52
2021/12/20 08:42:44;;;;;;;4.40;2.25;;;2.30;99.90;;;;;;5039957;28;20220;-54
2021/12/20 08:45:12;;;;;;;3.05;1.98;;;2.30;99.90;;;;;;5039426;28;20235;-52
2021/12/20 08:47:42;;;;;;;3.50;3.20;;;2.30;99.90;;;;;;5039559;28;20295;-52
2021/12/20 08:50:13;;;;;;;4.15;2.58;;;2.30;99.90;;;;;;5038513;28;20230;-49
2021/12/20 08:52:41;;;;;;;3.55;2.58;;;2.30;99.90;;;;;;5039055;28;20314;-50
2021/12/20 08:55:09;;;;;;;5.63;2.80;;;2.20;99.90;;;;;;5038904;28;20196;-52
2021/12/20 08:57:36;;;;;;;3.50;2.67;;;2.30;99.90;;;;;;5039098;28;20220;-53
2021/12/20 09:00:07;;;;;;;5.90;2.75;;;2.40;99.90;;;;;;5040359;28;20196;-50
2021/12/20 09:02:34;;;;;;;5.40;2.88;;;2.30;99.90;;;;;;5043207;28;20438;-53
2021/12/20 09:05:02;;;;;;;6.80;3.30;;;2.40;99.90;;;;;;5042615;28;20200;-55
2021/12/20 09:07:29;;;;;;;2.50;1.90;;;2.30;99.90;;;;;;5042987;28;20216;-52
2021/12/20 09:09:56;;;;;;;7.07;2.42;;;2.30;99.90;;;;;;5042407;28;20197;-54
2021/12/20 09:12:23;;;;;;;3.05;2.03;;;2.30;99.90;;;;;;5043942;28;20239;-54
2021/12/20 09:14:51;;;;;;;2.33;2.10;;;2.40;99.90;;;;;;5044511;28;20502;-49
2021/12/20 09:17:18;;;;;;;3.53;2.67;;;2.40;99.90;;;;;;5042126;28;20216;-49
2021/12/20 09:19:46;;;;;;;4.20;2.45;;;2.40;99.90;;;;;;5046907;28;20211;-50
2021/12/20 09:22:13;;;;;;;5.45;3.47;;;2.40;99.90;;;;;;5045138;28;20205;-49
2021/12/20 09:24:41;;;;;;;2.00;1.80;;;2.40;99.90;;;;;;5043381;28;20204;-49
2021/12/20 09:27:09;;;;;;;5.13;2.85;;;2.40;99.90;;;;;;5042525;28;20266;-52
2021/12/20 09:29:37;;;;;;;3.65;2.33;;;2.40;99.90;;;;;;5042986;28;20262;-53
2021/12/20 09:32:04;;;;;;;3.63;2.53;;;2.40;99.90;;;;;;5024998;28;20546;-52
2021/12/20 09:34:32;;;;;;;4.97;2.67;;;2.40;99.90;;;;;;5042577;28;20227;-52
2021/12/20 09:37:04;;;;;;;2.42;2.22;;;2.40;99.90;;;;;;5041859;28;20212;-51
2021/12/20 09:39:33;;;;;;;5.68;2.50;;;2.50;99.90;;;;;;5041985;28;20546;-49
2021/12/20 09:42:01;;;;;;;4.32;2.70;;;2.40;99.90;;;;;;5042114;28;20204;-50
2021/12/20 09:44:31;;;;;;;3.42;2.95;;;2.40;99.90;;;;;;5042053;28;20200;-49
2021/12/20 09:47:00;;;;;;;3.63;2.40;;;2.40;99.90;;;;;;5041730;28;20220;-50
2021/12/20 09:49:29;;;;;;;9.48;3.55;;;2.40;99.90;;;;;;5041824;28;20245;-51
2021/12/20 09:51:58;;;;;;;7.13;2.70;;;2.40;99.90;;;;;;5042018;28;20291;-53
2021/12/20 09:54:27;;;;;;;3.05;2.78;;;2.40;99.90;;;;;;5041617;28;20254;-50
2021/12/20 09:56:57;;;;;;;3.97;2.90;;;2.40;99.90;;;;;;5041208;28;20251;-52
2021/12/20 09:59:28;;;;;;;7.95;3.47;;;2.50;99.90;;;;;;5023968;28;20196;-49
2021/12/20 10:01:57;;;;;;;4.15;3.75;;;2.40;99.90;;;;;;5041843;28;20196;-50
2021/12/20 10:04:25;;;;;;;9.73;3.70;;;2.40;99.90;;;;;;5042001;28;20211;-52
2021/12/20 10:06:59;;;;;;;6.00;2.92;;;2.50;99.90;;;;;;5041520;28;20229;-52
2021/12/20 10:09:30;;;;;;;5.03;2.53;;;2.50;99.90;;;;;;5041443;28;20471;-52
2021/12/20 10:12:24;;;;;;;6.97;3.60;;;2.50;99.90;;;;;;5041104;28;20537;-53
2021/12/20 10:14:52;;;;;;;4.97;4.40;;;2.50;99.90;;;;;;5041619;28;20212;-49
2021/12/20 10:17:21;;;;;;;4.00;3.28;;;2.50;99.90;;;;;;5041181;28;20220;-51
2021/12/20 10:19:49;;;;;;;6.13;4.05;;;2.50;99.90;;;;;;5041177;28;20268;-52
2021/12/20 10:22:34;;;;;;;5.78;3.15;;;2.50;99.90;;;;;;5041335;28;20447;-53
2021/12/20 10:25:02;;;;;;;4.05;3.20;;;2.50;99.90;;;;;;5041406;28;20204;-49
2021/12/20 10:27:35;;;;;;;3.75;3.45;;;2.60;99.90;;;;;;5041395;28;20220;-49
2021/12/20 10:30:20;;;;;;;5.25;3.88;;;2.50;99.90;;;;;;5041203;28;20204;-53
2021/12/20 10:32:48;;;;;;;3.88;3.38;;;2.60;99.90;;;;;;5041509;28;20196;-53
2021/12/20 10:35:33;;;;;;;4.97;3.30;;;2.60;99.90;;;;;;5041164;28;20196;-56
2021/12/20 10:38:23;;;;;;;5.55;3.65;;;2.70;99.90;;;;;;5040968;28;20226;-53
2021/12/20 10:40:59;;;;;;;8.05;3.55;;;2.80;99.90;;;;;;5040790;28;20209;-53
2021/12/20 10:43:35;;;;;;;6.40;2.95;;;2.80;99.90;;;;;;5041370;28;20199;-52
2021/12/20 10:46:14;;;;;;;3.80;3.20;;;2.80;99.90;;;;;;5040854;28;20204;-52
2021/12/20 10:48:45;;;;;;;7.30;3.42;;;2.80;99.90;;;;;;5041157;28;20200;-56
2021/12/20 10:51:45;;;;;;;5.90;4.15;;;2.80;99.90;;;;;;5040625;28;20220;-55
2021/12/20 10:54:17;;;;;;;3.78;2.63;;;2.90;99.90;;;;;;5038424;28;20233;-49
2021/12/20 10:57:02;;;;;;;5.13;3.22;;;2.90;99.90;;;;;;5060959;22;20327;-53
2021/12/20 10:59:35;;;;;;;3.90;3.55;;;2.90;99.90;;;;;;5040568;28;20196;-49
2021/12/20 11:04:50;;;;;;;4.38;2.90;;;3.00;99.90;;;;;;5040452;28;20197;-54
2021/12/20 11:10:01;;;;;;;4.93;3.03;;;2.90;99.90;;;;;;5040826;28;20200;-51
2021/12/20 11:12:31;;;;;;;3.05;2.75;;;3.00;99.90;;;;;;5040079;28;20224;-49
2021/12/20 11:15:27;;;;;;;3.35;3.05;;;3.10;99.90;;;;;;5040498;28;20474;-53
2021/12/20 11:17:55;;;;;;;5.50;2.92;;;3.20;99.90;;;;;;5038747;28;20217;-51
2021/12/20 11:20:22;;;;;;;3.97;2.92;;;3.10;99.90;;;;;;5040811;28;20431;-49
2021/12/20 11:22:50;;;;;;;5.70;2.88;;;3.00;99.90;;;;;;5039729;28;20192;-51
2021/12/20 11:25:17;;;;;;;9.13;2.80;;;3.00;99.90;;;;;;5040665;28;20220;-48
2021/12/20 11:27:51;;;;;;;3.38;2.60;;;3.00;99.90;;;;;;5039929;28;20274;-48
2021/12/20 11:30:22;;;;;;;6.75;2.58;;;3.10;99.90;;;;;;5040271;28;20235;-48
2021/12/20 11:32:50;;;;;;;3.70;2.65;;;3.10;99.90;;;;;;5039974;28;20205;-49
2021/12/20 11:35:20;;;;;;;2.65;2.40;;;3.10;99.90;;;;;;5040754;28;20202;-51
2021/12/20 11:37:48;;;;;;;2.58;2.38;;;3.10;99.90;;;;;;5039764;28;20216;-52
2021/12/20 11:40:18;;;;;;;3.75;3.40;;;3.10;99.90;;;;;;5040090;28;20200;-50
2021/12/20 11:42:46;;;;;;;4.35;2.60;;;3.20;99.90;;;;;;5040118;28;20209;-47
2021/12/20 11:45:17;;;;;;;5.20;2.63;;;3.20;99.90;;;;;;5040078;28;20476;-48
2021/12/20 11:47:47;;;;;;;3.10;2.90;;;3.10;99.90;;;;;;5040624;28;20296;-54
2021/12/20 11:50:19;;;;;;;5.85;2.60;;;3.00;99.90;;;;;;5040277;28;20200;-47
2021/12/20 11:52:49;;;;;;;5.25;2.50;;;3.00;99.90;;;;;;5040776;28;20259;-48
2021/12/20 11:55:19;;;;;;;2.92;2.58;;;3.00;99.90;;;;;;5040401;28;20196;-54
2021/12/20 11:57:51;;;;;;;7.05;5.10;;;3.00;99.90;;;;;;5039595;28;20224;-48
2021/12/20 12:00:19;;;;;;;6.95;3.58;;;3.00;99.90;;;;;;5039773;28;20209;-54
2021/12/20 12:02:48;;;;;;;2.55;2.25;;;3.10;99.90;;;;;;5039835;28;20387;-52
2021/12/20 12:05:28;;;;;;;4.15;2.90;;;3.10;99.90;;;;;;5039934;28;20208;-49
2021/12/20 12:08:22;;;;;;;6.13;3.30;;;3.20;99.90;;;;;;5040330;28;20235;-47
2021/12/20 12:10:53;;;;;;;3.08;2.25;;;3.20;99.90;;;;;;5040007;28;20239;-50
2021/12/20 12:13:22;;;;;;;6.90;2.65;;;3.20;99.90;;;;;;5040503;28;20267;-53
2021/12/20 12:15:52;;;;;;;6.45;3.03;;;3.20;99.90;;;;;;5039576;28;20260;-52
2021/12/20 12:18:19;;;;;;;4.90;3.08;;;3.30;99.90;;;;;;5040395;28;20255;-52
2021/12/20 12:20:53;;;;;;;2.30;2.13;;;3.30;99.90;;;;;;5039944;28;20529;-50
2021/12/20 12:23:25;;;;;;;2.28;2.08;;;3.30;99.90;;;;;;5040616;28;20269;-48
2021/12/20 12:25:59;;;;;;;3.53;2.80;;;3.30;99.90;;;;;;5039876;28;20200;-50
2021/12/20 12:28:47;;;;;;;5.03;3.22;;;3.30;99.90;;;;;;5039932;28;20209;-50
2021/12/20 12:31:21;;;;;;;3.17;2.92;;;3.20;99.90;;;;;;5039788;28;20454;-53
2021/12/20 12:34:07;;;;;;;9.18;3.88;;;3.20;99.90;;;;;;5040476;28;20572;-49
2021/12/20 12:36:41;;;;;;;8.43;2.85;;;3.30;99.90;;;;;;5043540;28;20228;-49
2021/12/20 12:39:25;;;;;;;4.38;2.13;;;3.20;99.90;;;;;;5043814;28;20197;-50
2021/12/20 12:41:57;;;;;;;4.55;2.88;;;3.20;99.90;;;;;;5044442;28;20201;-51
2021/12/20 12:44:28;;;;;;;4.22;2.97;;;3.20;99.90;;;;;;5044591;28;20519;-53
2021/12/20 12:47:03;;;;;;;8.90;2.80;;;3.20;99.90;;;;;;5043778;28;20293;-48
2021/12/20 12:49:33;;;;;;;3.10;1.80;;;3.20;99.90;;;;;;5043576;28;20239;-52
2021/12/20 12:52:29;;;;;;;3.75;2.38;;;3.20;99.90;;;;;;5043481;28;20225;-48
2021/12/20 12:55:26;;;;;;;3.83;2.08;;;3.20;99.90;;;;;;5043408;28;20251;-52
2021/12/20 12:57:53;;;;;;;3.13;2.45;;;3.20;99.90;;;;;;5043012;28;20224;-51
2021/12/20 13:00:28;;;;;;;6.15;2.97;;;3.20;99.90;;;;;;5043228;28;20224;-50
2021/12/20 13:03:10;;;;;;;4.30;2.55;;;3.20;99.90;;;;;;5043175;28;20201;-54
2021/12/20 13:05:38;;;;;;;3.83;2.90;;;3.20;99.90;;;;;;5043165;28;20202;-52
2021/12/20 13:08:06;;;;;;;3.05;2.63;;;3.40;99.90;;;;;;5042855;28;20421;-53
2021/12/20 13:10:41;;;;;;;4.63;2.90;;;3.40;99.90;;;;;;5043150;28;20204;-51
2021/12/20 13:13:23;;;;;;;3.33;2.33;;;3.40;99.90;;;;;;5042423;28;20238;-47
2021/12/20 13:15:59;;;;;;;4.20;3.40;;;3.30;99.90;;;;;;5042747;28;20196;-51
2021/12/20 13:21:02;;;;;;;3.30;2.65;;;3.30;99.90;;;;;;5042605;28;20508;-54
2021/12/20 13:23:36;;;;;;;2.20;2.00;;;3.30;99.90;;;;;;5042408;28;20213;-49
2021/12/20 13:26:30;;;;;;;4.20;2.40;;;3.20;99.90;;;;;;5042637;28;20270;-50
2021/12/20 13:29:00;;;;;;;3.65;3.22;;;3.30;99.90;;;;;;5042518;28;20201;-52
2021/12/20 13:31:28;;;;;;;3.22;1.90;;;3.20;99.90;;;;;;5043077;28;20231;-50
2021/12/20 13:33:59;;;;;;;2.45;2.25;;;3.20;99.90;;;;;;5042922;28;20267;-51
2021/12/20 13:36:33;;;;;;;4.35;2.30;;;3.20;99.90;;;;;;5041975;28;20204;-54